createdAt,value
2023-04-01T00:00:36.076Z,989.07
2023-04-01T00:04:35.639Z,989.1
2023-04-01T00:08:35.405Z,989.12
2023-04-01T00:12:35.497Z,989.22
2023-04-01T00:16:45.131Z,989.23
2023-04-01T00:20:35.942Z,989.21
2023-04-01T00:24:35.118Z,989.29
2023-04-01T00:28:35.238Z,989.48
2023-04-01T00:32:35.657Z,989.38
2023-04-01T00:36:35.822Z,989.41
2023-04-01T00:40:35.956Z,989.38
2023-04-01T00:44:35.161Z,989.41
2023-04-01T00:48:35.309Z,989.56
2023-04-01T00:52:35.530Z,989.51
2023-04-01T00:56:35.281Z,989.55
2023-04-01T01:00:38.642Z,989.66
2023-04-01T01:04:35.671Z,989.62
2023-04-01T01:08:35.802Z,989.66
2023-04-01T01:12:35.864Z,989.73
2023-04-01T01:16:36.025Z,989.83
2023-04-01T01:20:49.212Z,989.86
2023-04-01T01:24:35.163Z,989.92
2023-04-01T01:28:35.428Z,989.86
2023-04-01T01:32:35.751Z,989.98
2023-04-01T01:36:35.958Z,989.98
2023-04-01T01:40:35.712Z,990
2023-04-01T01:44:35.876Z,990.08
2023-04-01T01:48:35.003Z,990
2023-04-01T01:52:35.265Z,990.05
2023-04-01T01:56:35.362Z,990.17
2023-04-01T02:00:38.619Z,990.18
2023-04-01T02:04:36.114Z,990.24
2023-04-01T02:08:35.063Z,990.27
2023-04-01T02:12:35.225Z,990.44
2023-04-01T02:16:35.691Z,990.42
2023-04-01T02:20:35.900Z,990.51
2023-04-01T02:24:35.026Z,990.59
2023-04-01T02:28:35.207Z,990.6
2023-04-01T02:32:35.440Z,990.65
2023-04-01T02:36:35.834Z,990.75
2023-04-01T02:40:35.997Z,990.79
2023-04-01T02:44:35.949Z,990.89
2023-04-01T02:48:35.184Z,990.89
2023-04-01T02:52:35.312Z,990.93
2023-04-01T02:56:35.594Z,991.03
2023-04-01T03:00:38.563Z,991.19
2023-04-01T03:04:35.743Z,991.13
2023-04-01T03:08:35.891Z,991.17
2023-04-01T03:12:35.943Z,991.35
2023-04-01T03:16:35.288Z,991.27
2023-04-01T03:20:35.297Z,991.51
2023-04-01T03:24:35.567Z,991.46
2023-04-01T03:28:35.815Z,991.62
2023-04-01T03:32:35.302Z,991.74
2023-04-01T03:36:35.666Z,991.76
2023-04-01T03:40:35.650Z,991.88
2023-04-01T03:44:35.819Z,991.89
2023-04-01T03:48:35.801Z,991.95
2023-04-01T03:52:36.046Z,992.1
2023-04-01T03:56:35.231Z,992.17
2023-04-01T04:00:40.950Z,992.17
2023-04-01T04:04:36.385Z,992.24
2023-04-01T04:08:35.076Z,992.31
2023-04-01T04:12:35.055Z,992.41
2023-04-01T04:16:35.338Z,992.41
2023-04-01T04:20:35.364Z,992.57
2023-04-01T04:24:35.430Z,992.68
2023-04-01T04:28:35.414Z,992.71
2023-04-01T04:32:35.628Z,992.66
2023-04-01T04:36:35.774Z,992.72
2023-04-01T04:40:35.830Z,992.87
2023-04-01T04:44:35.886Z,992.87
2023-04-01T04:48:35.991Z,992.97
2023-04-01T04:52:35.831Z,993.12
2023-04-01T04:56:35.913Z,993.12
2023-04-01T05:00:40.320Z,993.17
2023-04-01T05:04:35.355Z,993.27
2023-04-01T05:08:35.437Z,993.38
2023-04-01T05:12:35.444Z,993.47
2023-04-01T05:16:35.908Z,993.44
2023-04-01T05:20:35.894Z,993.48
2023-04-01T05:24:35.028Z,993.57
2023-04-01T05:28:35.198Z,993.67
2023-04-01T05:32:35.832Z,993.66
2023-04-01T05:36:35.928Z,993.77
2023-04-01T05:40:36.361Z,993.95
2023-04-01T05:44:35.322Z,993.9
2023-04-01T05:48:35.545Z,993.88
2023-04-01T05:52:35.534Z,994
2023-04-01T05:56:35.681Z,994.09
2023-04-01T06:00:38.315Z,994.11
2023-04-01T06:04:35.855Z,994.14
2023-04-01T06:08:35.730Z,994.14
2023-04-01T06:12:35.782Z,994.4
2023-04-01T06:16:35.949Z,994.34
2023-04-01T06:20:35.909Z,994.41
2023-04-01T06:24:35.834Z,994.55
2023-04-01T06:28:35.723Z,994.62
2023-04-01T06:32:36.172Z,994.68
2023-04-01T06:36:35.391Z,994.7
2023-04-01T06:40:35.261Z,994.77
2023-04-01T06:44:35.496Z,994.82
2023-04-01T06:48:35.969Z,995
2023-04-01T06:52:35.094Z,994.86
2023-04-01T06:56:35.286Z,994.96
2023-04-01T07:00:38.454Z,995.08
2023-04-01T07:04:35.990Z,995.13
2023-04-01T07:08:35.968Z,995.22
2023-04-01T07:12:36.256Z,995.18
2023-04-01T07:16:35.106Z,995.29
2023-04-01T07:20:35.262Z,995.28
2023-04-01T07:24:35.495Z,995.36
2023-04-01T07:28:35.570Z,995.54
2023-04-01T07:32:36.389Z,995.49
2023-04-01T07:36:35.769Z,995.63
2023-04-01T07:40:35.936Z,995.67
2023-04-01T07:44:35.098Z,995.56
2023-04-01T07:48:35.300Z,995.72
2023-04-01T07:52:35.359Z,995.78
2023-04-01T07:56:35.629Z,995.74
2023-04-01T08:00:40.058Z,995.73
2023-04-01T08:04:36.524Z,995.92
2023-04-01T08:08:35.157Z,995.91
2023-04-01T08:12:35.229Z,996.06
2023-04-01T08:16:35.467Z,995.99
2023-04-01T08:20:35.599Z,996.18
2023-04-01T08:24:46.967Z,996.25
2023-04-01T08:28:35.800Z,996.15
2023-04-01T08:32:36.335Z,996.31
2023-04-01T08:36:35.501Z,996.29
2023-04-01T08:40:35.475Z,996.45
2023-04-01T08:44:35.557Z,996.5
2023-04-01T08:48:35.921Z,996.43
2023-04-01T08:52:35.822Z,996.44
2023-04-01T08:56:35.132Z,996.56
2023-04-01T09:00:38.983Z,996.65
2023-04-01T09:04:36.509Z,996.6
2023-04-01T09:08:35.154Z,996.68
2023-04-01T09:12:35.224Z,996.73
2023-04-01T09:16:35.557Z,996.7
2023-04-01T09:20:35.552Z,996.91
2023-04-01T09:24:35.630Z,996.94
2023-04-01T09:28:35.536Z,996.96
2023-04-01T09:32:36.000Z,997.06
2023-04-01T09:36:35.777Z,997.03
2023-04-01T09:40:35.781Z,997.06
2023-04-01T09:44:35.579Z,997.13
2023-04-01T09:48:35.986Z,997.18
2023-04-01T09:52:35.724Z,997.18
2023-04-01T09:56:35.777Z,997.27
2023-04-01T10:00:38.904Z,997.28
2023-04-01T10:04:36.020Z,997.44
2023-04-01T10:08:35.259Z,997.45
2023-04-01T10:12:35.102Z,997.46
2023-04-01T10:16:35.484Z,997.43
2023-04-01T10:20:35.144Z,997.56
2023-04-01T10:24:35.014Z,997.54
2023-04-01T10:28:35.966Z,997.54
2023-04-01T10:32:36.105Z,997.58
2023-04-01T10:36:35.281Z,997.67
2023-04-01T10:40:35.169Z,997.75
2023-04-01T10:44:35.267Z,997.75
2023-04-01T10:48:35.354Z,997.72
2023-04-01T10:52:35.457Z,997.83
2023-04-01T10:56:35.587Z,997.83
2023-04-01T11:00:38.854Z,997.82
2023-04-01T11:04:36.045Z,997.91
2023-04-01T11:08:40.914Z,997.89
2023-04-01T11:12:35.993Z,997.96
2023-04-01T11:16:36.371Z,997.97
2023-04-01T11:20:36.251Z,997.98
2023-04-01T11:24:39.726Z,997.99
2023-04-01T11:28:35.407Z,998.1
2023-04-01T11:32:35.330Z,998.18
2023-04-01T11:36:35.580Z,998.2
2023-04-01T11:40:35.935Z,998.26
2023-04-01T11:44:35.136Z,998.25
2023-04-01T11:48:35.252Z,998.36
2023-04-01T11:52:35.102Z,998.31
2023-04-01T11:56:35.743Z,998.43
2023-04-01T12:00:40.839Z,998.4
2023-04-01T12:04:36.725Z,998.56
2023-04-01T12:08:35.172Z,998.53
2023-04-01T12:12:35.149Z,998.65
2023-04-01T12:16:35.461Z,998.65
2023-04-01T12:20:35.727Z,998.75
2023-04-01T12:24:35.845Z,998.84
2023-04-01T12:28:35.020Z,998.79
2023-04-01T12:32:35.968Z,998.93
2023-04-01T12:36:35.747Z,998.91
2023-04-01T12:40:35.979Z,999.01
2023-04-01T12:44:35.964Z,999.1
2023-04-01T12:48:35.827Z,999.12
2023-04-01T12:52:35.938Z,999.21
2023-04-01T12:56:35.657Z,999.23
2023-04-01T13:00:38.818Z,999.2
2023-04-01T13:04:35.222Z,999.26
2023-04-01T13:08:35.980Z,999.35
2023-04-01T13:12:51.449Z,999.47
2023-04-01T13:16:36.048Z,999.4
2023-04-01T13:20:40.315Z,999.43
2023-04-01T13:24:35.947Z,999.58
2023-04-01T13:28:37.537Z,999.67
2023-04-01T13:32:54.056Z,999.58
2023-04-01T13:36:35.951Z,999.7
2023-04-01T13:40:36.018Z,999.62
2023-04-01T13:44:35.038Z,999.67
2023-04-01T13:48:37.621Z,999.61
2023-04-01T13:52:35.289Z,999.75
2023-04-01T13:56:35.182Z,999.84
2023-04-01T14:00:38.655Z,999.94
2023-04-01T14:04:35.423Z,999.94
2023-04-01T14:08:35.322Z,999.92
2023-04-01T14:12:35.501Z,1000
2023-04-01T14:16:35.494Z,999.92
2023-04-01T14:20:38.042Z,1000.13
2023-04-01T14:24:35.119Z,1000.23
2023-04-01T14:28:36.066Z,1000.28
2023-04-01T14:32:36.014Z,1000.24
2023-04-01T14:36:35.985Z,1000.38
2023-04-01T14:40:35.741Z,1000.36
2023-04-01T14:44:35.676Z,1000.46
2023-04-01T14:48:35.912Z,1000.51
2023-04-01T14:52:35.660Z,1000.57
2023-04-01T14:56:35.800Z,1000.52
2023-04-01T15:00:38.317Z,1000.64
2023-04-01T15:04:35.507Z,1000.74
2023-04-01T15:08:35.605Z,1000.76
2023-04-01T15:12:35.581Z,1000.97
2023-04-01T15:16:36.007Z,1000.93
2023-04-01T15:20:38.678Z,1001.02
2023-04-01T15:24:35.375Z,1001.13
2023-04-01T15:28:35.605Z,1001.14
2023-04-01T15:32:35.918Z,1001.26
2023-04-01T15:36:36.105Z,1001.32
2023-04-01T15:40:36.012Z,1001.45
2023-04-01T15:44:35.441Z,1001.48
2023-04-01T15:48:35.693Z,1001.65
2023-04-01T15:52:35.678Z,1001.67
2023-04-01T15:56:35.782Z,1001.65
2023-04-01T16:00:40.760Z,1001.83
2023-04-01T16:04:35.855Z,1001.83
2023-04-01T16:08:35.735Z,1001.85
2023-04-01T16:12:35.882Z,1001.98
2023-04-01T16:16:36.069Z,1001.92
2023-04-01T16:20:35.859Z,1002.2
2023-04-01T16:24:35.977Z,1002.17
2023-04-01T16:28:35.836Z,1002.19
2023-04-01T16:32:36.184Z,1002.3
2023-04-01T16:36:35.057Z,1002.43
2023-04-01T16:40:36.190Z,1002.5
2023-04-01T16:44:35.008Z,1002.51
2023-04-01T16:48:35.151Z,1002.58
2023-04-01T16:52:35.953Z,1002.83
2023-04-01T16:56:35.084Z,1002.9
2023-04-01T17:00:38.425Z,1003.01
2023-04-01T17:04:35.675Z,1003.07
2023-04-01T17:08:35.417Z,1003.3
2023-04-01T17:12:35.561Z,1003.38
2023-04-01T17:16:35.593Z,1003.52
2023-04-01T17:20:35.832Z,1003.42
2023-04-01T17:24:35.568Z,1003.5
2023-04-01T17:28:35.521Z,1003.61
2023-04-01T17:32:36.050Z,1003.77
2023-04-01T17:36:36.112Z,1003.83
2023-04-01T17:40:35.550Z,1004.12
2023-04-01T17:44:35.433Z,1004.22
2023-04-01T17:48:35.626Z,1004.2
2023-04-01T17:52:35.870Z,1004.24
2023-04-01T17:56:35.872Z,1004.28
2023-04-01T18:00:52.901Z,1004.4
2023-04-01T18:04:35.399Z,1004.55
2023-04-01T18:08:35.093Z,1004.59
2023-04-01T18:12:35.322Z,1004.68
2023-04-01T18:16:35.396Z,1004.86
2023-04-01T18:20:36.014Z,1004.96
2023-04-01T18:24:36.602Z,1004.89
2023-04-01T18:28:35.844Z,1005.02
2023-04-01T18:32:36.118Z,1005.14
2023-04-01T18:36:35.376Z,1005.21
2023-04-01T18:40:35.787Z,1005.34
2023-04-01T18:44:35.563Z,1005.49
2023-04-01T18:48:35.914Z,1005.6
2023-04-01T18:52:35.666Z,1005.67
2023-04-01T18:56:35.833Z,1005.77
2023-04-01T19:00:39.870Z,1005.79
2023-04-01T19:04:35.389Z,1006.01
2023-04-01T19:08:35.353Z,1006.13
2023-04-01T19:12:35.531Z,1006.16
2023-04-01T19:16:35.637Z,1006.24
2023-04-01T19:20:36.008Z,1006.44
2023-04-01T19:24:37.512Z,1006.48
2023-04-01T19:28:35.740Z,1006.58
2023-04-01T19:32:35.999Z,1006.73
2023-04-01T19:36:35.901Z,1006.75
2023-04-01T19:40:36.357Z,1006.72
2023-04-01T19:44:35.740Z,1006.83
2023-04-01T19:48:35.957Z,1006.99
2023-04-01T19:52:35.801Z,1007
2023-04-01T19:56:35.745Z,1007.06
2023-04-01T20:00:37.570Z,1007.27
2023-04-01T20:04:35.659Z,1007.31
2023-04-01T20:08:35.517Z,1007.35
2023-04-01T20:12:35.678Z,1007.43
2023-04-01T20:16:35.772Z,1007.51
2023-04-01T20:20:35.740Z,1007.55
2023-04-01T20:24:35.666Z,1007.75
2023-04-01T20:28:35.543Z,1007.8
2023-04-01T20:32:35.762Z,1007.83
2023-04-01T20:36:36.113Z,1007.91
2023-04-01T20:40:36.019Z,1007.98
2023-04-01T20:44:36.035Z,1008.05
2023-04-01T20:48:35.111Z,1008.18
2023-04-01T20:52:35.191Z,1008.23
2023-04-01T20:56:35.226Z,1008.22
2023-04-01T21:00:38.301Z,1008.34
2023-04-01T21:04:35.690Z,1008.4
2023-04-01T21:08:35.614Z,1008.59
2023-04-01T21:12:35.591Z,1008.64
2023-04-01T21:16:35.904Z,1008.7
2023-04-01T21:20:35.708Z,1008.79
2023-04-01T21:24:35.910Z,1008.82
2023-04-01T21:28:36.022Z,1008.94
2023-04-01T21:32:35.190Z,1009.06
2023-04-01T21:36:35.573Z,1009.12
2023-04-01T21:40:35.796Z,1009.14
2023-04-01T21:44:35.711Z,1009.27
2023-04-01T21:48:35.885Z,1009.4
2023-04-01T21:52:35.925Z,1009.39
2023-04-01T21:56:35.949Z,1009.47
2023-04-01T22:00:35.522Z,1009.58
2023-04-01T22:04:35.736Z,1009.65
2023-04-01T22:08:35.300Z,1009.69
2023-04-01T22:12:36.735Z,1009.9
2023-04-01T22:16:35.919Z,1009.95
2023-04-01T22:20:35.856Z,1009.99
2023-04-01T22:24:35.200Z,1010.05
2023-04-01T22:28:35.316Z,1010.06
2023-04-01T22:32:35.933Z,1010.23
2023-04-01T22:36:35.942Z,1010.21
2023-04-01T22:40:35.038Z,1010.28
2023-04-01T22:44:35.452Z,1010.42
2023-04-01T22:48:35.660Z,1010.42
2023-04-01T22:52:35.841Z,1010.49
2023-04-01T22:56:36.033Z,1010.58
2023-04-01T23:00:42.107Z,1010.69
2023-04-01T23:04:35.493Z,1010.73
2023-04-01T23:08:35.489Z,1010.89
2023-04-01T23:12:35.915Z,1010.87
2023-04-01T23:16:36.221Z,1010.85
2023-04-01T23:20:35.220Z,1011.04
2023-04-01T23:24:35.256Z,1011.11
2023-04-01T23:28:35.705Z,1011.13
2023-04-01T23:32:35.941Z,1011.07
2023-04-01T23:36:36.145Z,1011.31
2023-04-01T23:40:38.278Z,1011.32
2023-04-01T23:44:35.110Z,1011.44
2023-04-01T23:48:35.413Z,1011.49
2023-04-01T23:52:35.379Z,1011.48
2023-04-01T23:56:35.531Z,1011.58
